sensor_id;sensor_type;location;lat;lon;timestamp;P1;P2;P0
43479;PMS5003;29067;35.492;-97.520;2023-12-20T00:00:36;2;2;
43479;PMS5003;29067;35.492;-97.520;2023-12-20T00:03:04;2;2;
43479;PMS5003;29067;35.492;-97.520;2023-12-20T00:05:32;1;1;
43479;PMS5003;29067;35.492;-97.520;2023-12-20T00:08:00;2;2;
43479;PMS5003;29067;35.492;-97.520;2023-12-20T00:10:28;2;2;
43479;PMS5003;29067;35.492;-97.520;2023-12-20T00:12:56;2;2;
43479;PMS5003;29067;35.492;-97.520;2023-12-20T00:15:24;3;3;
43479;PMS5003;29067;35.492;-97.520;2023-12-20T00:17:51;3;3;
43479;PMS5003;29067;35.492;-97.520;2023-12-20T00:20:19;3;3;
43479;PMS5003;29067;35.492;-97.520;2023-12-20T00:22:48;3;3;
43479;PMS5003;29067;35.492;-97.520;2023-12-20T00:25:15;2;2;
43479;PMS5003;29067;35.492;-97.520;2023-12-20T00:27:43;3;2;
43479;PMS5003;29067;35.492;-97.520;2023-12-20T00:30:11;4;3;
43479;PMS5003;29067;35.492;-97.520;2023-12-20T00:32:40;3;3;
43479;PMS5003;29067;35.492;-97.520;2023-12-20T00:35:08;2;2;
43479;PMS5003;29067;35.492;-97.520;2023-12-20T00:37:36;4;4;
43479;PMS5003;29067;35.492;-97.520;2023-12-20T00:40:04;5;4;
43479;PMS5003;29067;35.492;-97.520;2023-12-20T00:42:33;5;5;
43479;PMS5003;29067;35.492;-97.520;2023-12-20T00:45:00;17;17;
43479;PMS5003;29067;35.492;-97.520;2023-12-20T00:47:28;38;38;
43479;PMS5003;29067;35.492;-97.520;2023-12-20T00:49:57;23;23;
43479;PMS5003;29067;35.492;-97.520;2023-12-20T00:52:25;22;22;
43479;PMS5003;29067;35.492;-97.520;2023-12-20T00:54:53;23;23;
43479;PMS5003;29067;35.492;-97.520;2023-12-20T00:57:20;11;7;
43479;PMS5003;29067;35.492;-97.520;2023-12-20T00:59:48;30;30;
43479;PMS5003;29067;35.492;-97.520;2023-12-20T01:02:16;50;50;
43479;PMS5003;29067;35.492;-97.520;2023-12-20T01:04:44;55;55;
43479;PMS5003;29067;35.492;-97.520;2023-12-20T01:07:13;72;70;
43479;PMS5003;29067;35.492;-97.520;2023-12-20T01:09:40;24;24;
43479;PMS5003;29067;35.492;-97.520;2023-12-20T01:12:08;76;75;
43479;PMS5003;29067;35.492;-97.520;2023-12-20T01:14:36;52;52;
43479;PMS5003;29067;35.492;-97.520;2023-12-20T01:17:04;48;46;
43479;PMS5003;29067;35.492;-97.520;2023-12-20T01:19:32;79;77;
43479;PMS5003;29067;35.492;-97.520;2023-12-20T01:22:00;70;70;
43479;PMS5003;29067;35.492;-97.520;2023-12-20T01:24:28;61;61;
43479;PMS5003;29067;35.492;-97.520;2023-12-20T01:26:55;44;43;
43479;PMS5003;29067;35.492;-97.520;2023-12-20T01:29:23;47;47;
43479;PMS5003;29067;35.492;-97.520;2023-12-20T01:31:51;31;31;
43479;PMS5003;29067;35.492;-97.520;2023-12-20T01:34:19;32;31;
43479;PMS5003;29067;35.492;-97.520;2023-12-20T01:36:47;30;29;
43479;PMS5003;29067;35.492;-97.520;2023-12-20T01:39:15;32;30;
43479;PMS5003;29067;35.492;-97.520;2023-12-20T01:41:44;44;43;
43479;PMS5003;29067;35.492;-97.520;2023-12-20T01:44:12;31;30;
43479;PMS5003;29067;35.492;-97.520;2023-12-20T01:46:40;23;23;
43479;PMS5003;29067;35.492;-97.520;2023-12-20T01:49:08;9;9;
43479;PMS5003;29067;35.492;-97.520;2023-12-20T01:51:36;9;9;
43479;PMS5003;29067;35.492;-97.520;2023-12-20T01:54:04;17;17;
43479;PMS5003;29067;35.492;-97.520;2023-12-20T01:56:32;38;38;
43479;PMS5003;29067;35.492;-97.520;2023-12-20T01:59:01;25;25;
43479;PMS5003;29067;35.492;-97.520;2023-12-20T02:01:29;56;55;
43479;PMS5003;29067;35.492;-97.520;2023-12-20T02:03:58;59;59;
43479;PMS5003;29067;35.492;-97.520;2023-12-20T02:06:28;45;45;
43479;PMS5003;29067;35.492;-97.520;2023-12-20T02:08:57;14;8;
43479;PMS5003;29067;35.492;-97.520;2023-12-20T02:11:25;42;42;
43479;PMS5003;29067;35.492;-97.520;2023-12-20T02:13:54;99;99;
43479;PMS5003;29067;35.492;-97.520;2023-12-20T02:16:22;51;51;
43479;PMS5003;29067;35.492;-97.520;2023-12-20T02:18:50;50;50;
43479;PMS5003;29067;35.492;-97.520;2023-12-20T02:21:18;54;54;
43479;PMS5003;29067;35.492;-97.520;2023-12-20T02:23:47;56;56;
43479;PMS5003;29067;35.492;-97.520;2023-12-20T02:26:15;54;54;
43479;PMS5003;29067;35.492;-97.520;2023-12-20T02:28:44;53;53;
43479;PMS5003;29067;35.492;-97.520;2023-12-20T02:31:12;61;61;
43479;PMS5003;29067;35.492;-97.520;2023-12-20T02:33:39;33;29;
43479;PMS5003;29067;35.492;-97.520;2023-12-20T02:36:07;91;91;
43479;PMS5003;29067;35.492;-97.520;2023-12-20T02:38:35;60;60;
43479;PMS5003;29067;35.492;-97.520;2023-12-20T02:41:03;17;14;
43479;PMS5003;29067;35.492;-97.520;2023-12-20T02:43:31;63;60;
43479;PMS5003;29067;35.492;-97.520;2023-12-20T02:45:59;27;24;
43479;PMS5003;29067;35.492;-97.520;2023-12-20T02:48:28;24;21;
43479;PMS5003;29067;35.492;-97.520;2023-12-20T02:50:56;29;27;
43479;PMS5003;29067;35.492;-97.520;2023-12-20T02:53:24;53;49;
43479;PMS5003;29067;35.492;-97.520;2023-12-20T02:55:52;15;11;
43479;PMS5003;29067;35.492;-97.520;2023-12-20T02:58:20;85;85;
43479;PMS5003;29067;35.492;-97.520;2023-12-20T03:00:48;31;31;
43479;PMS5003;29067;35.492;-97.520;2023-12-20T03:03:16;5;5;
43479;PMS5003;29067;35.492;-97.520;2023-12-20T03:05:45;5;5;
43479;PMS5003;29067;35.492;-97.520;2023-12-20T03:08:13;7;5;
43479;PMS5003;29067;35.492;-97.520;2023-12-20T03:10:41;4;4;
43479;PMS5003;29067;35.492;-97.520;2023-12-20T03:13:09;4;4;
43479;PMS5003;29067;35.492;-97.520;2023-12-20T03:15:37;7;4;
43479;PMS5003;29067;35.492;-97.520;2023-12-20T03:18:05;5;5;
43479;PMS5003;29067;35.492;-97.520;2023-12-20T03:20:33;4;4;
43479;PMS5003;29067;35.492;-97.520;2023-12-20T03:23:01;4;4;
43479;PMS5003;29067;35.492;-97.520;2023-12-20T03:25:29;5;5;
43479;PMS5003;29067;35.492;-97.520;2023-12-20T03:27:57;4;4;
43479;PMS5003;29067;35.492;-97.520;2023-12-20T03:30:24;5;5;
43479;PMS5003;29067;35.492;-97.520;2023-12-20T03:32:52;3;3;
43479;PMS5003;29067;35.492;-97.520;2023-12-20T03:35:20;7;5;
43479;PMS5003;29067;35.492;-97.520;2023-12-20T03:37:48;3;3;
43479;PMS5003;29067;35.492;-97.520;2023-12-20T03:40:16;8;7;
43479;PMS5003;29067;35.492;-97.520;2023-12-20T03:42:44;5;5;
43479;PMS5003;29067;35.492;-97.520;2023-12-20T03:45:12;3;3;
43479;PMS5003;29067;35.492;-97.520;2023-12-20T03:47:40;5;5;
43479;PMS5003;29067;35.492;-97.520;2023-12-20T03:50:08;3;3;
43479;PMS5003;29067;35.492;-97.520;2023-12-20T03:52:36;4;4;
43479;PMS5003;29067;35.492;-97.520;2023-12-20T03:55:04;5;5;
43479;PMS5003;29067;35.492;-97.520;2023-12-20T03:57:33;4;4;
43479;PMS5003;29067;35.492;-97.520;2023-12-20T04:00:01;7;5;
43479;PMS5003;29067;35.492;-97.520;2023-12-20T04:02:29;5;5;
43479;PMS5003;29067;35.492;-97.520;2023-12-20T04:04:57;4;4;
43479;PMS5003;29067;35.492;-97.520;2023-12-20T04:07:24;5;5;
43479;PMS5003;29067;35.492;-97.520;2023-12-20T04:09:52;5;4;
43479;PMS5003;29067;35.492;-97.520;2023-12-20T04:12:20;4;4;
43479;PMS5003;29067;35.492;-97.520;2023-12-20T04:14:48;4;4;
43479;PMS5003;29067;35.492;-97.520;2023-12-20T04:17:17;3;3;
43479;PMS5003;29067;35.492;-97.520;2023-12-20T04:19:47;4;4;
43479;PMS5003;29067;35.492;-97.520;2023-12-20T04:22:15;5;5;
43479;PMS5003;29067;35.492;-97.520;2023-12-20T04:24:44;4;4;
43479;PMS5003;29067;35.492;-97.520;2023-12-20T04:27:12;7;7;
43479;PMS5003;29067;35.492;-97.520;2023-12-20T04:29:45;3;3;
43479;PMS5003;29067;35.492;-97.520;2023-12-20T04:32:13;5;5;
43479;PMS5003;29067;35.492;-97.520;2023-12-20T04:34:41;4;4;
43479;PMS5003;29067;35.492;-97.520;2023-12-20T04:37:09;6;4;
43479;PMS5003;29067;35.492;-97.520;2023-12-20T04:39:37;5;3;
43479;PMS5003;29067;35.492;-97.520;2023-12-20T04:42:05;7;7;
43479;PMS5003;29067;35.492;-97.520;2023-12-20T04:44:33;6;4;
43479;PMS5003;29067;35.492;-97.520;2023-12-20T04:47:01;4;3;
43479;PMS5003;29067;35.492;-97.520;2023-12-20T04:49:29;4;4;
43479;PMS5003;29067;35.492;-97.520;2023-12-20T04:51:57;6;6;
43479;PMS5003;29067;35.492;-97.520;2023-12-20T04:54:25;7;6;
43479;PMS5003;29067;35.492;-97.520;2023-12-20T04:56:52;5;5;
43479;PMS5003;29067;35.492;-97.520;2023-12-20T04:59:20;3;3;
43479;PMS5003;29067;35.492;-97.520;2023-12-20T05:01:48;6;4;
43479;PMS5003;29067;35.492;-97.520;2023-12-20T05:04:16;7;6;
43479;PMS5003;29067;35.492;-97.520;2023-12-20T05:06:44;6;6;
43479;PMS5003;29067;35.492;-97.520;2023-12-20T05:09:12;4;4;
43479;PMS5003;29067;35.492;-97.520;2023-12-20T05:11:40;4;4;
43479;PMS5003;29067;35.492;-97.520;2023-12-20T05:14:08;6;4;
43479;PMS5003;29067;35.492;-97.520;2023-12-20T05:16:36;4;3;
43479;PMS5003;29067;35.492;-97.520;2023-12-20T05:19:04;6;6;
43479;PMS5003;29067;35.492;-97.520;2023-12-20T05:21:32;4;4;
43479;PMS5003;29067;35.492;-97.520;2023-12-20T05:24:00;7;4;
43479;PMS5003;29067;35.492;-97.520;2023-12-20T05:26:28;7;6;
43479;PMS5003;29067;35.492;-97.520;2023-12-20T05:28:56;4;4;
43479;PMS5003;29067;35.492;-97.520;2023-12-20T05:31:25;6;4;
43479;PMS5003;29067;35.492;-97.520;2023-12-20T05:33:53;6;4;
43479;PMS5003;29067;35.492;-97.520;2023-12-20T05:36:21;4;4;
43479;PMS5003;29067;35.492;-97.520;2023-12-20T05:38:49;8;7;
43479;PMS5003;29067;35.492;-97.520;2023-12-20T05:41:17;6;4;
43479;PMS5003;29067;35.492;-97.520;2023-12-20T05:43:45;7;4;
43479;PMS5003;29067;35.492;-97.520;2023-12-20T05:46:12;6;4;
43479;PMS5003;29067;35.492;-97.520;2023-12-20T05:48:40;4;4;
43479;PMS5003;29067;35.492;-97.520;2023-12-20T05:51:11;3;3;
43479;PMS5003;29067;35.492;-97.520;2023-12-20T05:53:39;6;4;
43479;PMS5003;29067;35.492;-97.520;2023-12-20T05:56:07;4;4;
43479;PMS5003;29067;35.492;-97.520;2023-12-20T05:58:35;6;6;
43479;PMS5003;29067;35.492;-97.520;2023-12-20T06:01:03;4;3;
43479;PMS5003;29067;35.492;-97.520;2023-12-20T06:03:31;6;6;
43479;PMS5003;29067;35.492;-97.520;2023-12-20T06:05:59;8;4;
43479;PMS5003;29067;35.492;-97.520;2023-12-20T06:08:33;6;4;
43479;PMS5003;29067;35.492;-97.520;2023-12-20T06:11:01;4;4;
43479;PMS5003;29067;35.492;-97.520;2023-12-20T06:13:29;6;6;
43479;PMS5003;29067;35.492;-97.520;2023-12-20T06:15:57;6;6;
43479;PMS5003;29067;35.492;-97.520;2023-12-20T06:18:25;9;6;
43479;PMS5003;29067;35.492;-97.520;2023-12-20T06:20:54;6;6;
43479;PMS5003;29067;35.492;-97.520;2023-12-20T06:23:22;7;6;
43479;PMS5003;29067;35.492;-97.520;2023-12-20T06:25:50;4;4;
43479;PMS5003;29067;35.492;-97.520;2023-12-20T06:28:18;4;4;
43479;PMS5003;29067;35.492;-97.520;2023-12-20T06:30:46;4;4;
43479;PMS5003;29067;35.492;-97.520;2023-12-20T06:33:14;6;6;
43479;PMS5003;29067;35.492;-97.520;2023-12-20T06:35:42;7;7;
43479;PMS5003;29067;35.492;-97.520;2023-12-20T06:38:10;4;4;
43479;PMS5003;29067;35.492;-97.520;2023-12-20T06:40:38;6;6;
43479;PMS5003;29067;35.492;-97.520;2023-12-20T06:43:06;6;6;
43479;PMS5003;29067;35.492;-97.520;2023-12-20T06:45:34;6;4;
43479;PMS5003;29067;35.492;-97.520;2023-12-20T06:48:02;6;6;
43479;PMS5003;29067;35.492;-97.520;2023-12-20T06:50:31;6;6;
43479;PMS5003;29067;35.492;-97.520;2023-12-20T06:52:59;6;6;
43479;PMS5003;29067;35.492;-97.520;2023-12-20T06:55:27;4;4;
43479;PMS5003;29067;35.492;-97.520;2023-12-20T06:57:55;7;6;
43479;PMS5003;29067;35.492;-97.520;2023-12-20T07:00:23;6;6;
43479;PMS5003;29067;35.492;-97.520;2023-12-20T07:02:51;7;6;
43479;PMS5003;29067;35.492;-97.520;2023-12-20T07:05:19;6;6;
43479;PMS5003;29067;35.492;-97.520;2023-12-20T07:07:47;8;8;
43479;PMS5003;29067;35.492;-97.520;2023-12-20T07:10:15;6;6;
43479;PMS5003;29067;35.492;-97.520;2023-12-20T07:12:43;4;4;
43479;PMS5003;29067;35.492;-97.520;2023-12-20T07:15:11;6;4;
43479;PMS5003;29067;35.492;-97.520;2023-12-20T07:17:39;6;6;
43479;PMS5003;29067;35.492;-97.520;2023-12-20T07:20:07;6;6;
43479;PMS5003;29067;35.492;-97.520;2023-12-20T07:22:37;7;6;
43479;PMS5003;29067;35.492;-97.520;2023-12-20T07:25:05;6;6;
43479;PMS5003;29067;35.492;-97.520;2023-12-20T07:27:33;7;7;
43479;PMS5003;29067;35.492;-97.520;2023-12-20T07:30:01;6;6;
43479;PMS5003;29067;35.492;-97.520;2023-12-20T07:32:29;6;6;
43479;PMS5003;29067;35.492;-97.520;2023-12-20T07:34:58;8;7;
43479;PMS5003;29067;35.492;-97.520;2023-12-20T07:37:25;7;4;
43479;PMS5003;29067;35.492;-97.520;2023-12-20T07:39:53;7;6;
43479;PMS5003;29067;35.492;-97.520;2023-12-20T07:42:21;7;4;
43479;PMS5003;29067;35.492;-97.520;2023-12-20T07:44:49;6;6;
43479;PMS5003;29067;35.492;-97.520;2023-12-20T07:47:17;8;7;
43479;PMS5003;29067;35.492;-97.520;2023-12-20T07:49:45;4;4;
43479;PMS5003;29067;35.492;-97.520;2023-12-20T07:52:13;4;3;
43479;PMS5003;29067;35.492;-97.520;2023-12-20T07:54:41;7;6;
43479;PMS5003;29067;35.492;-97.520;2023-12-20T07:57:10;7;7;
43479;PMS5003;29067;35.492;-97.520;2023-12-20T07:59:37;6;6;
43479;PMS5003;29067;35.492;-97.520;2023-12-20T08:02:05;7;7;
43479;PMS5003;29067;35.492;-97.520;2023-12-20T08:04:33;8;6;
43479;PMS5003;29067;35.492;-97.520;2023-12-20T08:07:01;6;6;
43479;PMS5003;29067;35.492;-97.520;2023-12-20T08:09:29;7;6;
43479;PMS5003;29067;35.492;-97.520;2023-12-20T08:11:57;10;7;
43479;PMS5003;29067;35.492;-97.520;2023-12-20T08:14:25;7;7;
43479;PMS5003;29067;35.492;-97.520;2023-12-20T08:16:53;6;6;
43479;PMS5003;29067;35.492;-97.520;2023-12-20T08:19:21;8;7;
43479;PMS5003;29067;35.492;-97.520;2023-12-20T08:21:49;7;6;
43479;PMS5003;29067;35.492;-97.520;2023-12-20T08:24:17;7;7;
43479;PMS5003;29067;35.492;-97.520;2023-12-20T08:26:45;7;7;
43479;PMS5003;29067;35.492;-97.520;2023-12-20T08:29:13;6;4;
43479;PMS5003;29067;35.492;-97.520;2023-12-20T08:31:41;7;6;
43479;PMS5003;29067;35.492;-97.520;2023-12-20T08:34:09;6;6;
43479;PMS5003;29067;35.492;-97.520;2023-12-20T08:36:38;7;6;
43479;PMS5003;29067;35.492;-97.520;2023-12-20T08:39:06;6;6;
43479;PMS5003;29067;35.492;-97.520;2023-12-20T08:41:34;10;8;
43479;PMS5003;29067;35.492;-97.520;2023-12-20T08:44:03;7;6;
43479;PMS5003;29067;35.492;-97.520;2023-12-20T08:46:31;6;6;
43479;PMS5003;29067;35.492;-97.520;2023-12-20T08:48:58;8;7;
43479;PMS5003;29067;35.492;-97.520;2023-12-20T08:51:26;7;7;
43479;PMS5003;29067;35.492;-97.520;2023-12-20T08:53:54;8;8;
43479;PMS5003;29067;35.492;-97.520;2023-12-20T08:56:22;7;7;
43479;PMS5003;29067;35.492;-97.520;2023-12-20T08:58:50;9;8;
43479;PMS5003;29067;35.492;-97.520;2023-12-20T09:01:18;8;7;
43479;PMS5003;29067;35.492;-97.520;2023-12-20T09:03:46;8;8;
43479;PMS5003;29067;35.492;-97.520;2023-12-20T09:06:14;8;8;
43479;PMS5003;29067;35.492;-97.520;2023-12-20T09:08:42;7;7;
43479;PMS5003;29067;35.492;-97.520;2023-12-20T09:11:10;9;9;
43479;PMS5003;29067;35.492;-97.520;2023-12-20T09:13:38;9;8;
43479;PMS5003;29067;35.492;-97.520;2023-12-20T09:16:06;8;7;
43479;PMS5003;29067;35.492;-97.520;2023-12-20T09:18:35;8;8;
43479;PMS5003;29067;35.492;-97.520;2023-12-20T09:21:03;7;7;
43479;PMS5003;29067;35.492;-97.520;2023-12-20T09:23:31;7;7;
43479;PMS5003;29067;35.492;-97.520;2023-12-20T09:25:59;7;7;
43479;PMS5003;29067;35.492;-97.520;2023-12-20T09:28:27;8;8;
43479;PMS5003;29067;35.492;-97.520;2023-12-20T09:30:55;8;8;
43479;PMS5003;29067;35.492;-97.520;2023-12-20T09:33:23;7;7;
43479;PMS5003;29067;35.492;-97.520;2023-12-20T09:35:51;7;7;
43479;PMS5003;29067;35.492;-97.520;2023-12-20T09:38:19;8;7;
43479;PMS5003;29067;35.492;-97.520;2023-12-20T09:40:47;8;7;
43479;PMS5003;29067;35.492;-97.520;2023-12-20T09:43:15;7;7;
43479;PMS5003;29067;35.492;-97.520;2023-12-20T09:45:46;7;7;
43479;PMS5003;29067;35.492;-97.520;2023-12-20T09:48:14;7;6;
43479;PMS5003;29067;35.492;-97.520;2023-12-20T09:50:46;9;8;
43479;PMS5003;29067;35.492;-97.520;2023-12-20T09:53:15;7;7;
43479;PMS5003;29067;35.492;-97.520;2023-12-20T09:55:44;9;7;
43479;PMS5003;29067;35.492;-97.520;2023-12-20T09:58:12;9;9;
43479;PMS5003;29067;35.492;-97.520;2023-12-20T10:00:40;12;11;
43479;PMS5003;29067;35.492;-97.520;2023-12-20T10:03:08;9;8;
43479;PMS5003;29067;35.492;-97.520;2023-12-20T10:05:37;8;8;
43479;PMS5003;29067;35.492;-97.520;2023-12-20T10:08:09;12;11;
43479;PMS5003;29067;35.492;-97.520;2023-12-20T10:10:37;9;7;
43479;PMS5003;29067;35.492;-97.520;2023-12-20T10:13:06;6;6;
43479;PMS5003;29067;35.492;-97.520;2023-12-20T10:15:36;7;7;
43479;PMS5003;29067;35.492;-97.520;2023-12-20T10:18:04;9;8;
43479;PMS5003;29067;35.492;-97.520;2023-12-20T10:20:33;9;8;
43479;PMS5003;29067;35.492;-97.520;2023-12-20T10:23:01;8;8;
43479;PMS5003;29067;35.492;-97.520;2023-12-20T10:25:29;8;8;
43479;PMS5003;29067;35.492;-97.520;2023-12-20T10:28:13;9;9;
43479;PMS5003;29067;35.492;-97.520;2023-12-20T10:30:42;7;7;
43479;PMS5003;29067;35.492;-97.520;2023-12-20T10:33:10;8;8;
43479;PMS5003;29067;35.492;-97.520;2023-12-20T10:35:38;8;8;
43479;PMS5003;29067;35.492;-97.520;2023-12-20T10:38:08;7;7;
43479;PMS5003;29067;35.492;-97.520;2023-12-20T10:40:38;11;9;
43479;PMS5003;29067;35.492;-97.520;2023-12-20T10:43:06;7;7;
43479;PMS5003;29067;35.492;-97.520;2023-12-20T10:45:35;8;8;
43479;PMS5003;29067;35.492;-97.520;2023-12-20T10:48:04;11;8;
43479;PMS5003;29067;35.492;-97.520;2023-12-20T10:50:32;9;7;
43479;PMS5003;29067;35.492;-97.520;2023-12-20T10:53:03;9;9;
43479;PMS5003;29067;35.492;-97.520;2023-12-20T10:55:31;11;9;
43479;PMS5003;29067;35.492;-97.520;2023-12-20T10:58:00;7;6;
43479;PMS5003;29067;35.492;-97.520;2023-12-20T11:00:33;7;7;
43479;PMS5003;29067;35.492;-97.520;2023-12-20T11:03:05;9;9;
43479;PMS5003;29067;35.492;-97.520;2023-12-20T11:05:40;12;11;
43479;PMS5003;29067;35.492;-97.520;2023-12-20T11:08:17;8;8;
43479;PMS5003;29067;35.492;-97.520;2023-12-20T11:10:55;9;9;
43479;PMS5003;29067;35.492;-97.520;2023-12-20T11:13:31;10;9;
43479;PMS5003;29067;35.492;-97.520;2023-12-20T11:16:03;9;8;
43479;PMS5003;29067;35.492;-97.520;2023-12-20T11:18:32;9;9;
43479;PMS5003;29067;35.492;-97.520;2023-12-20T11:21:00;9;8;
43479;PMS5003;29067;35.492;-97.520;2023-12-20T11:23:31;10;9;
43479;PMS5003;29067;35.492;-97.520;2023-12-20T11:26:00;9;9;
43479;PMS5003;29067;35.492;-97.520;2023-12-20T11:28:29;12;12;
43479;PMS5003;29067;35.492;-97.520;2023-12-20T11:30:58;10;9;
43479;PMS5003;29067;35.492;-97.520;2023-12-20T11:33:29;13;10;
43479;PMS5003;29067;35.492;-97.520;2023-12-20T11:36:02;9;9;
43479;PMS5003;29067;35.492;-97.520;2023-12-20T11:38:39;9;9;
43479;PMS5003;29067;35.492;-97.520;2023-12-20T11:41:23;12;12;
43479;PMS5003;29067;35.492;-97.520;2023-12-20T11:43:53;10;9;
43479;PMS5003;29067;35.492;-97.520;2023-12-20T11:46:22;12;10;
43479;PMS5003;29067;35.492;-97.520;2023-12-20T11:48:50;9;8;
43479;PMS5003;29067;35.492;-97.520;2023-12-20T11:51:18;10;10;
43479;PMS5003;29067;35.492;-97.520;2023-12-20T11:53:46;10;10;
43479;PMS5003;29067;35.492;-97.520;2023-12-20T11:56:19;13;12;
43479;PMS5003;29067;35.492;-97.520;2023-12-20T11:58:47;12;10;
43479;PMS5003;29067;35.492;-97.520;2023-12-20T12:03:00;12;12;
43479;PMS5003;29067;35.492;-97.520;2023-12-20T12:05:28;10;9;
43479;PMS5003;29067;35.492;-97.520;2023-12-20T12:07:58;13;12;
43479;PMS5003;29067;35.492;-97.520;2023-12-20T12:10:26;9;9;
43479;PMS5003;29067;35.492;-97.520;2023-12-20T12:12:54;12;12;
43479;PMS5003;29067;35.492;-97.520;2023-12-20T12:15:22;13;10;
43479;PMS5003;29067;35.492;-97.520;2023-12-20T12:17:53;9;9;
43479;PMS5003;29067;35.492;-97.520;2023-12-20T12:20:21;10;9;
43479;PMS5003;29067;35.492;-97.520;2023-12-20T12:22:57;14;13;
43479;PMS5003;29067;35.492;-97.520;2023-12-20T12:25:26;12;12;
43479;PMS5003;29067;35.492;-97.520;2023-12-20T12:27:56;13;12;
43479;PMS5003;29067;35.492;-97.520;2023-12-20T12:30:24;13;10;
43479;PMS5003;29067;35.492;-97.520;2023-12-20T12:32:53;12;10;
43479;PMS5003;29067;35.492;-97.520;2023-12-20T12:35:22;12;10;
43479;PMS5003;29067;35.492;-97.520;2023-12-20T12:37:50;12;12;
43479;PMS5003;29067;35.492;-97.520;2023-12-20T12:40:18;13;13;
43479;PMS5003;29067;35.492;-97.520;2023-12-20T12:42:47;13;9;
43479;PMS5003;29067;35.492;-97.520;2023-12-20T12:45:14;14;13;
43479;PMS5003;29067;35.492;-97.520;2023-12-20T12:47:42;12;10;
43479;PMS5003;29067;35.492;-97.520;2023-12-20T12:50:11;14;14;
43479;PMS5003;29067;35.492;-97.520;2023-12-20T12:52:39;14;14;
43479;PMS5003;29067;35.492;-97.520;2023-12-20T12:55:07;15;15;
43479;PMS5003;29067;35.492;-97.520;2023-12-20T12:57:35;15;14;
43479;PMS5003;29067;35.492;-97.520;2023-12-20T13:00:03;15;15;
43479;PMS5003;29067;35.492;-97.520;2023-12-20T13:02:32;14;12;
43479;PMS5003;29067;35.492;-97.520;2023-12-20T13:05:00;15;14;
43479;PMS5003;29067;35.492;-97.520;2023-12-20T13:07:28;18;17;
43479;PMS5003;29067;35.492;-97.520;2023-12-20T13:09:56;16;15;
43479;PMS5003;29067;35.492;-97.520;2023-12-20T13:12:24;15;14;
43479;PMS5003;29067;35.492;-97.520;2023-12-20T13:14:52;20;18;
43479;PMS5003;29067;35.492;-97.520;2023-12-20T13:17:21;14;14;
43479;PMS5003;29067;35.492;-97.520;2023-12-20T13:19:49;15;15;
43479;PMS5003;29067;35.492;-97.520;2023-12-20T13:22:17;17;15;
43479;PMS5003;29067;35.492;-97.520;2023-12-20T13:24:44;18;13;
43479;PMS5003;29067;35.492;-97.520;2023-12-20T13:27:12;16;16;
43479;PMS5003;29067;35.492;-97.520;2023-12-20T13:29:41;14;14;
43479;PMS5003;29067;35.492;-97.520;2023-12-20T13:32:08;14;14;
43479;PMS5003;29067;35.492;-97.520;2023-12-20T13:34:36;17;14;
43479;PMS5003;29067;35.492;-97.520;2023-12-20T13:37:04;17;14;
43479;PMS5003;29067;35.492;-97.520;2023-12-20T13:39:32;14;14;
43479;PMS5003;29067;35.492;-97.520;2023-12-20T13:42:00;18;17;
43479;PMS5003;29067;35.492;-97.520;2023-12-20T13:44:28;18;17;
43479;PMS5003;29067;35.492;-97.520;2023-12-20T13:46:56;18;17;
43479;PMS5003;29067;35.492;-97.520;2023-12-20T13:49:24;18;17;
43479;PMS5003;29067;35.492;-97.520;2023-12-20T13:51:51;18;15;
43479;PMS5003;29067;35.492;-97.520;2023-12-20T13:54:20;21;20;
43479;PMS5003;29067;35.492;-97.520;2023-12-20T13:56:48;21;19;
43479;PMS5003;29067;35.492;-97.520;2023-12-20T13:59:16;17;15;
43479;PMS5003;29067;35.492;-97.520;2023-12-20T14:01:44;17;15;
43479;PMS5003;29067;35.492;-97.520;2023-12-20T14:04:12;17;17;
43479;PMS5003;29067;35.492;-97.520;2023-12-20T14:06:40;18;18;
43479;PMS5003;29067;35.492;-97.520;2023-12-20T14:09:08;15;15;
43479;PMS5003;29067;35.492;-97.520;2023-12-20T14:11:36;18;18;
43479;PMS5003;29067;35.492;-97.520;2023-12-20T14:14:04;26;19;
43479;PMS5003;29067;35.492;-97.520;2023-12-20T14:16:31;27;24;
43479;PMS5003;29067;35.492;-97.520;2023-12-20T14:18:59;21;20;
43479;PMS5003;29067;35.492;-97.520;2023-12-20T14:21:27;32;21;
43479;PMS5003;29067;35.492;-97.520;2023-12-20T14:23:55;18;18;
43479;PMS5003;29067;35.492;-97.520;2023-12-20T14:26:22;19;18;
43479;PMS5003;29067;35.492;-97.520;2023-12-20T14:28:50;20;19;
43479;PMS5003;29067;35.492;-97.520;2023-12-20T14:31:19;24;21;
43479;PMS5003;29067;35.492;-97.520;2023-12-20T14:33:47;22;20;
43479;PMS5003;29067;35.492;-97.520;2023-12-20T14:36:14;27;21;
43479;PMS5003;29067;35.492;-97.520;2023-12-20T14:38:42;16;16;
43479;PMS5003;29067;35.492;-97.520;2023-12-20T14:41:10;26;24;
43479;PMS5003;29067;35.492;-97.520;2023-12-20T14:43:38;18;16;
43479;PMS5003;29067;35.492;-97.520;2023-12-20T14:46:07;24;24;
43479;PMS5003;29067;35.492;-97.520;2023-12-20T14:48:35;28;22;
43479;PMS5003;29067;35.492;-97.520;2023-12-20T14:51:03;20;19;
43479;PMS5003;29067;35.492;-97.520;2023-12-20T14:53:31;20;18;
43479;PMS5003;29067;35.492;-97.520;2023-12-20T14:55:58;24;19;
43479;PMS5003;29067;35.492;-97.520;2023-12-20T14:58:27;27;25;
43479;PMS5003;29067;35.492;-97.520;2023-12-20T15:00:54;37;22;
43479;PMS5003;29067;35.492;-97.520;2023-12-20T15:03:23;26;24;
43479;PMS5003;29067;35.492;-97.520;2023-12-20T15:05:50;22;21;
43479;PMS5003;29067;35.492;-97.520;2023-12-20T15:08:18;24;22;
43479;PMS5003;29067;35.492;-97.520;2023-12-20T15:10:46;26;20;
43479;PMS5003;29067;35.492;-97.520;2023-12-20T15:13:14;26;22;
43479;PMS5003;29067;35.492;-97.520;2023-12-20T15:15:42;33;25;
43479;PMS5003;29067;35.492;-97.520;2023-12-20T15:18:10;26;22;
43479;PMS5003;29067;35.492;-97.520;2023-12-20T15:20:38;23;21;
43479;PMS5003;29067;35.492;-97.520;2023-12-20T15:23:06;39;30;
43479;PMS5003;29067;35.492;-97.520;2023-12-20T15:25:34;25;19;
43479;PMS5003;29067;35.492;-97.520;2023-12-20T15:28:02;24;22;
43479;PMS5003;29067;35.492;-97.520;2023-12-20T15:30:30;26;23;
43479;PMS5003;29067;35.492;-97.520;2023-12-20T15:32:57;28;24;
43479;PMS5003;29067;35.492;-97.520;2023-12-20T15:35:25;27;22;
43479;PMS5003;29067;35.492;-97.520;2023-12-20T15:37:53;27;23;
43479;PMS5003;29067;35.492;-97.520;2023-12-20T15:40:20;26;21;
43479;PMS5003;29067;35.492;-97.520;2023-12-20T15:42:48;27;25;
43479;PMS5003;29067;35.492;-97.520;2023-12-20T15:45:16;29;23;
43479;PMS5003;29067;35.492;-97.520;2023-12-20T15:47:44;36;22;
43479;PMS5003;29067;35.492;-97.520;2023-12-20T15:50:12;31;23;
43479;PMS5003;29067;35.492;-97.520;2023-12-20T15:52:40;22;21;
43479;PMS5003;29067;35.492;-97.520;2023-12-20T15:55:08;22;19;
43479;PMS5003;29067;35.492;-97.520;2023-12-20T15:57:36;29;26;
43479;PMS5003;29067;35.492;-97.520;2023-12-20T16:00:04;22;19;
43479;PMS5003;29067;35.492;-97.520;2023-12-20T16:02:32;29;24;
43479;PMS5003;29067;35.492;-97.520;2023-12-20T16:05:01;27;21;
43479;PMS5003;29067;35.492;-97.520;2023-12-20T16:07:30;66;59;
43479;PMS5003;29067;35.492;-97.520;2023-12-20T16:09:58;46;40;
43479;PMS5003;29067;35.492;-97.520;2023-12-20T16:12:26;40;29;